createdAt,value
2017-09-24T00:00:33.792Z,83.40
2017-09-24T00:03:01.390Z,83.50
2017-09-24T00:05:28.970Z,83.40
2017-09-24T00:07:57.281Z,83.00
2017-09-24T00:10:24.882Z,83.00
2017-09-24T00:12:53.270Z,82.80
2017-09-24T00:15:21.598Z,83.10
2017-09-24T00:17:49.202Z,83.10
2017-09-24T00:20:17.567Z,83.50
2017-09-24T00:22:45.134Z,83.50
2017-09-24T00:25:12.716Z,83.60
2017-09-24T00:27:41.050Z,84.10
2017-09-24T00:30:08.627Z,84.20
2017-09-24T00:32:36.194Z,83.90
2017-09-24T00:35:03.809Z,84.00
2017-09-24T00:37:31.385Z,84.20
2017-09-24T00:39:58.953Z,84.00
2017-09-24T00:42:26.546Z,83.90
2017-09-24T00:44:54.123Z,83.80
2017-09-24T00:47:22.452Z,84.20
2017-09-24T00:49:50.030Z,84.20
2017-09-24T00:52:17.591Z,84.30
2017-09-24T00:54:45.180Z,84.40
2017-09-24T00:57:12.790Z,84.10
2017-09-24T00:59:40.371Z,83.70
2017-09-24T01:02:07.952Z,83.10
2017-09-24T01:04:36.349Z,82.90
2017-09-24T01:07:03.944Z,82.90
2017-09-24T01:09:32.746Z,82.90
2017-09-24T01:12:00.358Z,82.80
2017-09-24T01:14:28.716Z,82.50
2017-09-24T01:16:56.334Z,82.50
2017-09-24T01:19:24.053Z,82.90
2017-09-24T01:21:52.420Z,82.90
2017-09-24T01:24:19.997Z,82.80
2017-09-24T01:26:48.396Z,82.80
2017-09-24T01:29:15.996Z,82.80
2017-09-24T01:31:43.633Z,82.60
2017-09-24T01:34:11.218Z,82.80
2017-09-24T01:36:38.817Z,82.90
2017-09-24T01:39:07.208Z,83.10
2017-09-24T01:41:35.605Z,83.10
2017-09-24T01:44:03.158Z,83.10
2017-09-24T01:46:30.745Z,83.30
2017-09-24T01:48:58.314Z,83.10
2017-09-24T01:51:28.106Z,83.00
2017-09-24T01:53:55.703Z,83.20
2017-09-24T01:56:23.405Z,83.10
2017-09-24T01:58:51.792Z,82.90
2017-09-24T02:01:19.414Z,83.00
2017-09-24T02:03:47.011Z,83.10
2017-09-24T02:06:14.633Z,83.40
2017-09-24T02:08:42.232Z,83.70
2017-09-24T02:11:09.859Z,83.70
2017-09-24T02:13:37.485Z,83.60
2017-09-24T02:16:05.103Z,83.50
2017-09-24T02:18:33.465Z,84.00
2017-09-24T02:21:01.090Z,84.00
2017-09-24T02:23:28.685Z,83.90
2017-09-24T02:25:56.306Z,83.50
2017-09-24T02:28:23.913Z,82.60
2017-09-24T02:30:51.535Z,82.70
2017-09-24T02:33:19.109Z,82.70
2017-09-24T02:35:46.697Z,82.40
2017-09-24T02:38:15.076Z,82.50
2017-09-24T02:40:43.437Z,82.70
2017-09-24T02:43:11.022Z,82.70
2017-09-24T02:45:38.677Z,82.50
2017-09-24T02:48:07.043Z,82.10
2017-09-24T02:50:34.633Z,82.10
2017-09-24T02:53:02.288Z,82.60
2017-09-24T02:55:30.656Z,82.80
2017-09-24T02:57:58.278Z,82.80
2017-09-24T03:00:25.854Z,82.80
2017-09-24T03:02:53.462Z,82.90
2017-09-24T03:05:21.067Z,83.00
2017-09-24T03:07:48.695Z,83.10
2017-09-24T03:10:16.278Z,83.00
2017-09-24T03:12:43.866Z,82.90
2017-09-24T03:15:11.491Z,82.90
2017-09-24T03:17:39.387Z,82.80
2017-09-24T03:20:07.015Z,83.10
2017-09-24T03:22:34.603Z,82.80
2017-09-24T03:25:02.223Z,82.60
2017-09-24T03:27:29.855Z,82.60
2017-09-24T03:29:58.212Z,82.70
2017-09-24T03:32:25.768Z,82.70
2017-09-24T03:34:53.368Z,82.80
2017-09-24T03:37:21.717Z,83.30
2017-09-24T03:39:49.313Z,83.30
2017-09-24T03:42:17.667Z,86.00
2017-09-24T03:44:45.256Z,86.00
2017-09-24T03:47:12.842Z,86.20
2017-09-24T03:49:40.410Z,86.40
2017-09-24T03:52:08.014Z,86.10
2017-09-24T03:54:36.338Z,85.90
2017-09-24T03:57:03.940Z,85.90
2017-09-24T03:59:31.569Z,84.60
2017-09-24T04:01:59.193Z,84.20
2017-09-24T04:04:27.547Z,84.80
2017-09-24T04:06:55.126Z,84.80
2017-09-24T04:09:23.542Z,84.60
2017-09-24T04:11:51.130Z,84.60
2017-09-24T04:14:18.712Z,84.80
2017-09-24T04:16:46.265Z,84.30
2017-09-24T04:19:13.855Z,84.40
2017-09-24T04:21:41.450Z,84.40
2017-09-24T04:24:09.039Z,85.10
2017-09-24T04:26:36.598Z,85.40
2017-09-24T04:29:04.200Z,85.70
2017-09-24T04:31:31.798Z,85.90
2017-09-24T04:33:59.401Z,86.10
2017-09-24T04:36:27.778Z,88.70
2017-09-24T04:38:56.141Z,87.80
2017-09-24T04:41:23.786Z,87.90
2017-09-24T04:43:51.398Z,87.90
2017-09-24T04:46:18.942Z,87.70
2017-09-24T04:48:46.519Z,87.40
2017-09-24T04:51:14.116Z,87.40
2017-09-24T04:53:41.680Z,87.40
2017-09-24T04:56:09.321Z,86.90
2017-09-24T04:58:36.957Z,86.30
2017-09-24T05:01:04.548Z,86.10
2017-09-24T05:03:32.140Z,85.60
2017-09-24T05:05:59.783Z,85.50
2017-09-24T05:08:27.362Z,85.10
2017-09-24T05:10:54.943Z,85.00
2017-09-24T05:13:23.345Z,84.70
2017-09-24T05:15:50.922Z,84.60
2017-09-24T05:18:18.510Z,84.60
2017-09-24T05:20:46.069Z,84.30
2017-09-24T05:23:13.642Z,84.10
2017-09-24T05:25:41.201Z,84.00
2017-09-24T05:28:08.811Z,84.00
2017-09-24T05:30:36.414Z,83.80
2017-09-24T05:33:04.016Z,84.10
2017-09-24T05:35:32.350Z,84.60
2017-09-24T05:37:59.901Z,84.60
2017-09-24T05:40:27.482Z,85.20
2017-09-24T05:42:55.056Z,85.40
2017-09-24T05:45:23.398Z,85.70
2017-09-24T05:47:50.971Z,85.70
2017-09-24T05:50:18.531Z,86.70
2017-09-24T05:52:46.108Z,86.80
2017-09-24T05:55:13.700Z,86.60
2017-09-24T05:57:42.035Z,86.30
2017-09-24T06:00:09.600Z,86.30
2017-09-24T06:02:37.158Z,86.50
2017-09-24T06:05:04.712Z,86.60
2017-09-24T06:07:32.285Z,86.40
2017-09-24T06:09:59.854Z,86.10
2017-09-24T06:12:28.207Z,86.80
2017-09-24T06:14:55.764Z,86.70
2017-09-24T06:17:23.321Z,86.70
2017-09-24T06:19:50.929Z,87.00
2017-09-24T06:22:19.267Z,85.80
2017-09-24T06:24:46.869Z,85.80
2017-09-24T06:27:15.208Z,85.90
2017-09-24T06:29:42.802Z,85.80
2017-09-24T06:32:11.146Z,87.50
2017-09-24T06:34:38.719Z,87.50
2017-09-24T06:37:06.302Z,87.90
2017-09-24T06:39:34.637Z,87.00
2017-09-24T06:42:02.230Z,86.90
2017-09-24T06:44:30.556Z,86.80
2017-09-24T06:46:58.137Z,86.70
2017-09-24T06:49:25.710Z,86.90
2017-09-24T06:51:53.305Z,86.70
2017-09-24T06:54:21.628Z,86.50
2017-09-24T06:56:49.218Z,86.50
2017-09-24T06:59:16.831Z,86.90
2017-09-24T07:01:44.425Z,86.90
2017-09-24T07:04:12.020Z,86.90
2017-09-24T07:06:40.341Z,87.10
2017-09-24T07:09:07.913Z,87.10
2017-09-24T07:11:35.491Z,87.30
2017-09-24T07:14:03.077Z,87.00
2017-09-24T07:16:31.532Z,87.90
2017-09-24T07:18:59.096Z,87.90
2017-09-24T07:21:26.701Z,87.30
2017-09-24T07:23:54.281Z,87.40
2017-09-24T07:26:21.865Z,87.70
2017-09-24T07:28:49.425Z,87.60
2017-09-24T07:31:17.025Z,88.00
2017-09-24T07:33:45.375Z,88.20
2017-09-24T07:36:12.948Z,88.20
2017-09-24T07:38:40.532Z,88.40
2017-09-24T07:41:08.114Z,88.40
2017-09-24T07:43:35.817Z,88.80
2017-09-24T07:46:03.402Z,89.30
2017-09-24T07:48:31.742Z,90.10
2017-09-24T07:50:59.318Z,90.00
2017-09-24T07:53:26.880Z,89.90
2017-09-24T07:55:54.468Z,89.00
2017-09-24T07:58:22.859Z,89.70
2017-09-24T08:00:50.430Z,89.70
2017-09-24T08:03:18.001Z,88.30
2017-09-24T08:05:45.562Z,87.40
2017-09-24T08:08:13.134Z,86.80
2017-09-24T08:10:40.716Z,86.50
2017-09-24T08:13:08.283Z,87.00
2017-09-24T08:15:35.839Z,86.80
2017-09-24T08:18:03.422Z,86.30
2017-09-24T08:20:31.742Z,86.60
2017-09-24T08:22:59.317Z,86.60
2017-09-24T08:25:26.884Z,85.40
2017-09-24T08:27:54.480Z,86.70
2017-09-24T08:30:22.807Z,84.50
2017-09-24T08:32:50.394Z,84.40
2017-09-24T08:35:17.988Z,83.20
2017-09-24T08:37:45.554Z,84.00
2017-09-24T08:40:13.228Z,85.10
2017-09-24T08:42:40.861Z,84.50
2017-09-24T08:45:09.211Z,83.20
2017-09-24T08:47:36.794Z,83.20
2017-09-24T08:50:05.199Z,85.40
2017-09-24T08:52:32.798Z,85.30
2017-09-24T08:55:00.387Z,84.80
2017-09-24T08:57:27.988Z,83.60
2017-09-24T08:59:55.541Z,83.60
2017-09-24T09:02:23.116Z,82.70
2017-09-24T09:04:50.700Z,81.20
2017-09-24T09:07:18.271Z,81.30
2017-09-24T09:09:45.875Z,81.10
2017-09-24T09:12:14.231Z,81.20
2017-09-24T09:14:41.790Z,81.20
2017-09-24T09:17:09.382Z,81.80
2017-09-24T09:19:36.965Z,80.20
2017-09-24T09:22:04.570Z,80.40
2017-09-24T09:24:32.156Z,79.90
2017-09-24T09:26:59.738Z,80.40
2017-09-24T09:29:27.310Z,80.70
2017-09-24T09:31:54.869Z,80.40
2017-09-24T09:34:33.111Z,82.10
2017-09-24T09:37:00.688Z,80.60
2017-09-24T09:39:29.110Z,78.90
2017-09-24T09:41:56.697Z,78.90
2017-09-24T09:44:35.924Z,78.80
2017-09-24T09:47:15.211Z,78.60
2017-09-24T09:49:43.588Z,77.00
2017-09-24T09:52:11.933Z,77.30
2017-09-24T09:54:39.557Z,77.30
2017-09-24T09:57:07.147Z,76.60
2017-09-24T09:59:34.719Z,76.60
2017-09-24T10:02:02.298Z,75.50
2017-09-24T10:04:30.645Z,73.10
2017-09-24T10:07:09.826Z,73.10
2017-09-24T10:09:49.157Z,74.10
2017-09-24T10:12:16.734Z,73.60
2017-09-24T10:14:44.350Z,74.00
2017-09-24T10:17:11.933Z,73.70
2017-09-24T10:19:40.273Z,73.20
2017-09-24T10:22:07.873Z,73.20
2017-09-24T10:24:37.012Z,71.20
2017-09-24T10:27:04.656Z,71.30
2017-09-24T10:29:32.234Z,70.30
2017-09-24T10:32:01.671Z,70.70
2017-09-24T10:34:29.323Z,69.80
2017-09-24T10:36:56.927Z,69.10
2017-09-24T10:39:24.494Z,68.60
2017-09-24T10:41:52.065Z,67.40
2017-09-24T10:44:19.621Z,67.30
2017-09-24T10:46:47.194Z,66.50
2017-09-24T10:49:14.859Z,68.40
2017-09-24T10:51:42.460Z,66.90
2017-09-24T10:54:10.040Z,66.30
2017-09-24T10:56:38.395Z,68.60
2017-09-24T10:59:05.987Z,68.60
2017-09-24T11:01:34.326Z,71.10
2017-09-24T11:04:01.895Z,71.10
2017-09-24T11:06:29.480Z,71.00
2017-09-24T11:08:57.857Z,69.20
2017-09-24T11:11:25.443Z,69.30
2017-09-24T11:13:53.021Z,69.60
2017-09-24T11:16:20.611Z,69.00
2017-09-24T11:18:48.176Z,68.80
2017-09-24T11:21:16.574Z,66.50
2017-09-24T11:23:44.912Z,65.30
2017-09-24T11:26:12.529Z,65.30
2017-09-24T11:28:40.103Z,65.90
2017-09-24T11:31:08.501Z,63.10
2017-09-24T11:33:36.136Z,63.10
2017-09-24T11:36:03.748Z,62.10
2017-09-24T11:38:31.350Z,62.30
2017-09-24T11:40:58.966Z,63.10
2017-09-24T11:43:26.547Z,61.50
2017-09-24T11:45:54.093Z,59.20
2017-09-24T11:48:21.664Z,57.80
2017-09-24T11:50:50.019Z,57.90
2017-09-24T11:53:17.707Z,57.90
2017-09-24T11:55:45.276Z,57.00
2017-09-24T11:58:13.645Z,57.80
2017-09-24T12:00:41.235Z,57.80
2017-09-24T12:03:08.817Z,58.40
2017-09-24T12:05:36.390Z,56.20
2017-09-24T12:08:03.959Z,54.10
2017-09-24T12:10:31.537Z,54.20
2017-09-24T12:12:59.138Z,53.90
2017-09-24T12:15:26.768Z,56.50
2017-09-24T12:17:54.367Z,53.60
2017-09-24T12:20:21.953Z,52.30
2017-09-24T12:22:49.587Z,51.70
2017-09-24T12:25:17.166Z,51.80
2017-09-24T12:27:44.767Z,52.10
2017-09-24T12:30:12.359Z,50.90
2017-09-24T12:32:40.036Z,52.00
2017-09-24T12:35:07.940Z,51.30
2017-09-24T12:37:35.526Z,52.60
2017-09-24T12:40:03.100Z,51.80
2017-09-24T12:42:30.681Z,51.60
2017-09-24T12:44:58.318Z,51.30
2017-09-24T12:47:26.656Z,50.60
2017-09-24T12:49:54.221Z,50.50
2017-09-24T12:52:21.817Z,50.10
2017-09-24T12:54:51.390Z,48.40
2017-09-24T12:57:18.993Z,48.40
2017-09-24T12:59:47.337Z,48.30
2017-09-24T13:02:14.933Z,48.30
2017-09-24T13:04:42.520Z,47.30
2017-09-24T13:07:10.128Z,48.50
2017-09-24T13:09:42.636Z,47.70
2017-09-24T13:12:10.230Z,47.50
2017-09-24T13:14:38.460Z,46.30
2017-09-24T13:17:06.796Z,46.10
2017-09-24T13:19:34.338Z,46.00
2017-09-24T13:22:01.938Z,47.30
2017-09-24T13:24:29.524Z,47.10
2017-09-24T13:26:57.126Z,47.10
2017-09-24T13:29:24.705Z,47.80
2017-09-24T13:31:52.261Z,47.00
2017-09-24T13:34:20.934Z,46.50
2017-09-24T13:36:48.486Z,48.30
2017-09-24T13:39:16.066Z,48.70
2017-09-24T13:41:43.746Z,49.10
2017-09-24T13:44:11.298Z,50.20
2017-09-24T13:46:38.932Z,50.60
2017-09-24T13:49:06.510Z,50.90
2017-09-24T13:51:34.130Z,51.40
2017-09-24T13:54:01.749Z,51.00
2017-09-24T13:56:29.337Z,50.70
2017-09-24T13:58:57.725Z,50.30
2017-09-24T14:01:25.324Z,50.20
2017-09-24T14:03:52.956Z,51.00
2017-09-24T14:06:20.573Z,50.70
2017-09-24T14:08:48.123Z,50.40
2017-09-24T14:11:15.681Z,50.90
2017-09-24T14:13:43.269Z,51.90
2017-09-24T14:16:11.613Z,52.50
2017-09-24T14:18:39.167Z,52.50
2017-09-24T14:21:06.749Z,52.70
2017-09-24T14:23:34.314Z,52.60
2017-09-24T14:26:01.897Z,53.60
2017-09-24T14:28:30.233Z,53.50
2017-09-24T14:30:57.827Z,53.50
2017-09-24T14:33:26.208Z,52.90
2017-09-24T14:35:54.576Z,53.40
2017-09-24T14:38:23.938Z,53.40
2017-09-24T14:40:51.528Z,53.40
2017-09-24T14:43:23.312Z,53.80
2017-09-24T14:45:50.946Z,54.00
2017-09-24T14:48:18.568Z,54.70
2017-09-24T14:50:46.140Z,54.20
2017-09-24T14:53:13.735Z,52.80
2017-09-24T14:55:41.295Z,53.00
2017-09-24T14:58:08.880Z,53.20
2017-09-24T15:00:37.232Z,54.10
2017-09-24T15:03:04.788Z,54.00
2017-09-24T15:05:32.372Z,54.20
2017-09-24T15:07:59.941Z,53.70
2017-09-24T15:10:27.513Z,53.60
2017-09-24T15:12:55.936Z,56.20
2017-09-24T15:15:23.529Z,56.20
2017-09-24T15:17:52.282Z,56.70
2017-09-24T15:20:19.915Z,57.20
2017-09-24T15:22:47.495Z,57.40
2017-09-24T15:25:15.129Z,57.20
2017-09-24T15:27:43.446Z,57.80
2017-09-24T15:30:11.017Z,57.80
2017-09-24T15:32:38.587Z,58.00
2017-09-24T15:35:06.197Z,58.50
2017-09-24T15:37:34.537Z,58.60
2017-09-24T15:40:02.122Z,58.60
2017-09-24T15:42:30.490Z,59.00
2017-09-24T15:44:58.812Z,59.70
2017-09-24T15:47:26.418Z,59.50
2017-09-24T15:49:53.973Z,59.80
2017-09-24T15:52:21.579Z,60.10
2017-09-24T15:54:49.153Z,60.70
2017-09-24T15:57:21.372Z,61.10
2017-09-24T15:59:48.951Z,61.10
2017-09-24T16:02:17.287Z,61.70
2017-09-24T16:04:44.841Z,61.70
2017-09-24T16:07:12.410Z,61.30
2017-09-24T16:09:39.984Z,61.70
2017-09-24T16:12:07.582Z,62.10
2017-09-24T16:14:35.171Z,62.20
2017-09-24T16:17:02.741Z,62.30
2017-09-24T16:19:30.310Z,62.50
2017-09-24T16:21:57.905Z,62.80
2017-09-24T16:24:26.238Z,62.30
2017-09-24T16:26:53.815Z,62.20
2017-09-24T16:29:21.403Z,62.80
2017-09-24T16:31:49.748Z,63.10
2017-09-24T16:34:17.340Z,63.00
2017-09-24T16:36:45.729Z,63.60
2017-09-24T16:39:14.072Z,64.20
2017-09-24T16:41:41.664Z,64.10
2017-09-24T16:44:09.995Z,65.70
2017-09-24T16:46:37.576Z,65.70
2017-09-24T16:49:05.137Z,66.70
2017-09-24T16:51:32.710Z,67.40
2017-09-24T16:54:01.052Z,68.20
2017-09-24T16:56:28.641Z,68.20
2017-09-24T16:58:56.355Z,68.30
2017-09-24T17:01:23.947Z,68.60
2017-09-24T17:03:51.549Z,68.60
2017-09-24T17:06:19.872Z,68.50
2017-09-24T17:08:47.452Z,68.50
2017-09-24T17:11:15.053Z,68.20
2017-09-24T17:13:43.406Z,68.90
2017-09-24T17:16:10.977Z,69.60
2017-09-24T17:18:39.346Z,69.00
2017-09-24T17:21:06.956Z,69.00
2017-09-24T17:23:34.538Z,69.20
2017-09-24T17:26:02.096Z,70.00
2017-09-24T17:28:29.687Z,70.30
2017-09-24T17:30:57.265Z,70.50
2017-09-24T17:33:25.622Z,70.60
2017-09-24T17:35:53.202Z,70.60
2017-09-24T17:38:21.545Z,70.50
2017-09-24T17:40:49.113Z,70.60
2017-09-24T17:43:16.725Z,70.90
2017-09-24T17:45:44.317Z,71.60
2017-09-24T17:48:11.886Z,71.90
2017-09-24T17:50:39.500Z,71.90
2017-09-24T17:53:07.092Z,71.70
2017-09-24T17:55:34.676Z,71.70
2017-09-24T17:58:02.898Z,72.20
2017-09-24T18:00:30.506Z,71.90
2017-09-24T18:02:58.112Z,71.60
2017-09-24T18:05:26.456Z,72.30
2017-09-24T18:07:54.047Z,72.20
2017-09-24T18:10:22.376Z,72.60
2017-09-24T18:12:50.002Z,72.60
2017-09-24T18:15:17.582Z,72.80
2017-09-24T18:17:45.174Z,73.10
2017-09-24T18:20:12.756Z,73.50
2017-09-24T18:22:41.112Z,74.80
2017-09-24T18:25:08.672Z,74.70
2017-09-24T18:27:36.255Z,74.60
2017-09-24T18:30:04.594Z,75.20
2017-09-24T18:32:32.197Z,75.30
2017-09-24T18:35:00.510Z,75.10
2017-09-24T18:37:28.126Z,75.10
2017-09-24T18:39:56.482Z,75.30
2017-09-24T18:42:24.071Z,75.30
2017-09-24T18:44:52.466Z,75.60
2017-09-24T18:47:20.053Z,75.70
2017-09-24T18:49:47.663Z,75.80
2017-09-24T18:52:15.243Z,76.00
2017-09-24T18:54:43.597Z,76.30
2017-09-24T18:57:11.163Z,76.30
2017-09-24T18:59:38.757Z,76.40
2017-09-24T19:02:06.329Z,76.40
2017-09-24T19:04:33.938Z,76.30
2017-09-24T19:07:01.517Z,76.50
2017-09-24T19:09:29.859Z,76.70
2017-09-24T19:11:57.426Z,76.70
2017-09-24T19:14:25.023Z,76.90
2017-09-24T19:16:53.343Z,77.40
2017-09-24T19:19:20.972Z,77.40
2017-09-24T19:21:48.573Z,78.00
2017-09-24T19:24:16.144Z,78.00
2017-09-24T19:26:43.760Z,78.10
2017-09-24T19:29:11.329Z,78.40
2017-09-24T19:31:38.941Z,78.60
2017-09-24T19:34:07.292Z,79.00
2017-09-24T19:36:34.871Z,79.00
2017-09-24T19:39:02.454Z,78.90
2017-09-24T19:41:30.797Z,78.80
2017-09-24T19:43:58.460Z,78.80
2017-09-24T19:46:26.046Z,79.00
2017-09-24T19:48:54.377Z,79.20
2017-09-24T19:51:21.975Z,79.20
2017-09-24T19:53:49.559Z,79.00
2017-09-24T19:56:17.946Z,79.00
2017-09-24T19:58:45.565Z,78.90
2017-09-24T20:01:13.155Z,79.20
2017-09-24T20:03:40.784Z,79.00
2017-09-24T20:06:08.370Z,79.00
2017-09-24T20:08:36.706Z,79.30
2017-09-24T20:11:04.274Z,79.20
2017-09-24T20:13:31.869Z,79.50
2017-09-24T20:16:00.197Z,79.50
2017-09-24T20:18:27.780Z,79.50
2017-09-24T20:20:55.369Z,79.70
2017-09-24T20:23:23.775Z,80.00
2017-09-24T20:25:51.363Z,80.00
2017-09-24T20:28:18.946Z,80.50
2017-09-24T20:30:46.523Z,80.30
2017-09-24T20:33:14.112Z,80.40
2017-09-24T20:35:41.664Z,80.60
2017-09-24T20:38:09.263Z,80.50
2017-09-24T20:40:36.815Z,80.70
2017-09-24T20:43:04.387Z,81.00
2017-09-24T20:45:31.977Z,81.40
2017-09-24T20:47:59.538Z,81.10
2017-09-24T20:50:27.125Z,81.10
2017-09-24T20:52:54.721Z,81.20
2017-09-24T20:55:22.302Z,81.70
2017-09-24T20:57:49.870Z,81.50
2017-09-24T21:00:17.469Z,81.30
2017-09-24T21:02:45.790Z,81.30
2017-09-24T21:05:13.358Z,81.30
2017-09-24T21:07:40.937Z,81.30
2017-09-24T21:10:08.508Z,82.00
2017-09-24T21:12:36.095Z,81.90
2017-09-24T21:15:03.682Z,82.10
2017-09-24T21:17:31.251Z,82.30
2017-09-24T21:19:58.859Z,82.70
2017-09-24T21:22:26.429Z,82.60
2017-09-24T21:24:54.761Z,82.30
2017-09-24T21:27:22.348Z,82.30
2017-09-24T21:29:49.928Z,82.10
2017-09-24T21:32:18.263Z,82.40
2017-09-24T21:34:45.879Z,82.40
2017-09-24T21:37:13.424Z,82.40
2017-09-24T21:39:41.786Z,82.00
2017-09-24T21:42:09.352Z,82.00
2017-09-24T21:44:37.730Z,82.00
2017-09-24T21:47:05.288Z,82.00
2017-09-24T21:49:32.856Z,82.30
2017-09-24T21:52:00.429Z,82.10
2017-09-24T21:54:28.744Z,82.40
2017-09-24T21:56:56.326Z,82.30
2017-09-24T21:59:23.881Z,82.50
2017-09-24T22:01:51.466Z,82.60
2017-09-24T22:04:19.050Z,83.00
2017-09-24T22:06:47.373Z,83.30
2017-09-24T22:09:14.971Z,83.30
2017-09-24T22:11:43.315Z,83.70
2017-09-24T22:14:12.529Z,84.20
2017-09-24T22:16:40.093Z,84.20
2017-09-24T22:19:24.320Z,84.50
2017-09-24T22:22:08.797Z,84.80
2017-09-24T22:24:44.673Z,84.90
2017-09-24T22:27:12.233Z,84.80
2017-09-24T22:29:39.789Z,84.80
2017-09-24T22:32:07.390Z,84.80
2017-09-24T22:34:35.707Z,85.20
2017-09-24T22:37:03.288Z,85.10
2017-09-24T22:39:30.841Z,85.60
2017-09-24T22:41:58.402Z,85.80
2017-09-24T22:44:25.961Z,85.50
2017-09-24T22:46:53.567Z,85.70
2017-09-24T22:49:21.897Z,85.70
2017-09-24T22:51:49.478Z,85.70
2017-09-24T22:54:17.080Z,85.70
2017-09-24T22:56:45.423Z,85.40
2017-09-24T22:59:12.992Z,85.40
2017-09-24T23:01:40.535Z,85.40
2017-09-24T23:04:08.170Z,85.60
2017-09-24T23:06:35.739Z,85.60
2017-09-24T23:09:03.302Z,85.70
2017-09-24T23:11:30.886Z,85.90
2017-09-24T23:13:58.446Z,85.70
2017-09-24T23:16:26.036Z,85.90
2017-09-24T23:18:54.382Z,86.50
2017-09-24T23:21:21.981Z,85.70
2017-09-24T23:23:49.550Z,85.60
2017-09-24T23:26:17.165Z,85.80
2017-09-24T23:28:44.731Z,85.50
2017-09-24T23:31:12.319Z,85.30
2017-09-24T23:33:39.928Z,85.50
2017-09-24T23:36:07.486Z,85.60
2017-09-24T23:38:35.042Z,85.50
2017-09-24T23:41:02.602Z,85.40
2017-09-24T23:43:30.165Z,85.60
2017-09-24T23:45:57.746Z,85.40
2017-09-24T23:48:25.317Z,86.50
2017-09-24T23:50:52.904Z,85.40
2017-09-24T23:53:20.475Z,85.70
2017-09-24T23:55:48.054Z,85.60
2017-09-24T23:58:15.621Z,85.50
